createdAt,value
2022-11-03T00:02:08.909Z,8.85
2022-11-03T00:04:38.702Z,8.90
2022-11-03T00:07:06.995Z,8.95
2022-11-03T00:09:35.377Z,8.94
2022-11-03T00:12:03.758Z,8.94
2022-11-03T00:14:32.828Z,8.60
2022-11-03T00:17:01.173Z,8.89
2022-11-03T00:19:29.383Z,8.84
2022-11-03T00:21:59.568Z,8.80
2022-11-03T00:24:27.887Z,8.78
2022-11-03T00:26:56.245Z,8.75
2022-11-03T00:29:27.328Z,8.77
2022-11-03T00:31:55.611Z,8.79
2022-11-03T00:34:24.893Z,8.77
2022-11-03T00:36:53.288Z,8.69
2022-11-03T00:39:23.008Z,8.59
2022-11-03T00:41:51.264Z,8.54
2022-11-03T00:44:19.504Z,8.51
2022-11-03T00:46:47.818Z,8.42
2022-11-03T00:49:16.137Z,8.49
2022-11-03T00:51:44.382Z,7.70
2022-11-03T00:54:12.616Z,8.46
2022-11-03T00:56:44.420Z,8.47
2022-11-03T00:59:12.758Z,8.45
2022-11-03T01:01:46.814Z,8.40
2022-11-03T01:04:34.617Z,8.29
2022-11-03T01:07:04.348Z,8.32
2022-11-03T01:09:36.593Z,8.08
2022-11-03T01:12:08.428Z,8.33
2022-11-03T01:14:39.682Z,8.29
2022-11-03T01:17:11.204Z,8.26
2022-11-03T01:19:39.552Z,8.22
2022-11-03T01:22:10.841Z,8.25
2022-11-03T01:24:40.536Z,8.25
2022-11-03T01:27:11.268Z,8.29
2022-11-03T01:29:39.574Z,8.23
2022-11-03T01:32:08.510Z,8.22
2022-11-03T01:34:37.209Z,8.20
2022-11-03T01:37:06.980Z,8.09
2022-11-03T01:39:35.448Z,8.16
2022-11-03T01:42:03.770Z,8.14
2022-11-03T01:44:36.070Z,8.14
2022-11-03T01:47:24.325Z,8.15
2022-11-03T01:49:57.405Z,8.20
2022-11-03T01:52:29.261Z,8.27
2022-11-03T01:55:02.388Z,8.28
2022-11-03T01:57:44.425Z,8.24
2022-11-03T02:00:23.832Z,8.20
2022-11-03T02:03:05.249Z,8.09
2022-11-03T02:05:44.679Z,7.89
2022-11-03T02:08:22.292Z,8.00
2022-11-03T02:10:57.338Z,7.99
2022-11-03T02:13:37.021Z,7.99
2022-11-03T02:16:18.960Z,7.99
2022-11-03T02:19:04.447Z,8.00
2022-11-03T02:21:51.851Z,7.97
2022-11-03T02:24:40.062Z,7.95
2022-11-03T02:27:21.913Z,7.97
2022-11-03T02:30:02.165Z,7.98
2022-11-03T02:32:46.556Z,8.03
2022-11-03T02:35:32.421Z,8.06
2022-11-03T02:38:13.758Z,7.96
2022-11-03T02:40:57.319Z,8.18
2022-11-03T02:43:39.093Z,8.30
2022-11-03T02:46:21.444Z,8.32
2022-11-03T02:48:59.416Z,8.37
2022-11-03T02:51:39.754Z,8.42
2022-11-03T02:54:25.085Z,8.45
2022-11-03T02:57:12.358Z,8.44
2022-11-03T03:00:01.192Z,8.43
2022-11-03T03:02:47.443Z,8.45
2022-11-03T03:05:29.555Z,8.45
2022-11-03T03:08:14.465Z,8.29
2022-11-03T03:10:55.076Z,8.48
2022-11-03T03:13:35.038Z,8.56
2022-11-03T03:16:22.736Z,8.65
2022-11-03T03:19:11.781Z,8.70
2022-11-03T03:21:53.082Z,8.74
2022-11-03T03:24:47.497Z,8.76
2022-11-03T03:27:28.693Z,8.74
2022-11-03T03:30:13.844Z,8.75
2022-11-03T03:32:57.991Z,8.78
2022-11-03T03:35:40.758Z,8.83
2022-11-03T03:38:24.946Z,8.84
2022-11-03T03:41:10.378Z,8.87
2022-11-03T03:43:49.227Z,8.98
2022-11-03T03:46:36.584Z,9.05
2022-11-03T03:49:19.385Z,9.10
2022-11-03T03:51:58.836Z,9.16
2022-11-03T03:54:35.752Z,9.17
2022-11-03T03:57:18.692Z,9.18
2022-11-03T03:59:56.512Z,9.25
2022-11-03T04:02:35.362Z,9.28
2022-11-03T04:05:32.084Z,9.32
2022-11-03T04:08:11.169Z,9.41
2022-11-03T04:11:08.299Z,9.53
2022-11-03T04:14:03.927Z,9.64
2022-11-03T04:17:00.618Z,9.67
2022-11-03T04:19:57.101Z,9.77
2022-11-03T04:22:39.974Z,9.82
2022-11-03T04:25:20.725Z,9.87
2022-11-03T04:27:58.856Z,9.94
2022-11-03T04:30:38.280Z,10.03
2022-11-03T04:33:21.348Z,10.11
2022-11-03T04:36:03.532Z,10.18
2022-11-03T04:38:46.077Z,10.27
2022-11-03T04:41:29.468Z,10.32
2022-11-03T04:44:07.267Z,10.37
2022-11-03T04:46:47.343Z,10.43
2022-11-03T04:49:29.465Z,10.48
2022-11-03T04:52:10.939Z,10.52
2022-11-03T04:54:54.600Z,10.60
2022-11-03T04:57:37.258Z,10.64
2022-11-03T05:00:21.188Z,10.66
2022-11-03T05:03:01.791Z,10.61
2022-11-03T05:05:39.855Z,10.54
2022-11-03T05:08:21.015Z,10.54
2022-11-03T05:11:06.703Z,10.59
2022-11-03T05:13:48.408Z,10.66
2022-11-03T05:16:28.161Z,10.72
2022-11-03T05:19:07.435Z,10.79
2022-11-03T05:21:46.181Z,10.83
2022-11-03T05:24:29.971Z,10.90
2022-11-03T05:27:19.084Z,10.91
2022-11-03T05:30:07.429Z,10.92
2022-11-03T05:32:45.535Z,10.91
2022-11-03T05:35:29.525Z,10.94
2022-11-03T05:38:06.391Z,10.97
2022-11-03T05:40:46.820Z,11.01
2022-11-03T05:43:31.281Z,11.00
2022-11-03T05:46:14.017Z,10.98
2022-11-03T05:48:51.838Z,10.98
2022-11-03T05:51:33.706Z,10.98
2022-11-03T05:54:19.665Z,11.01
2022-11-03T05:57:00.144Z,11.05
2022-11-03T05:59:41.053Z,11.08
2022-11-03T06:02:37.767Z,11.06
2022-11-03T06:05:24.124Z,11.03
2022-11-03T06:08:08.547Z,11.06
2022-11-03T06:10:51.680Z,11.11
2022-11-03T06:13:36.224Z,11.18
2022-11-03T06:16:35.799Z,11.22
2022-11-03T06:19:30.421Z,11.20
2022-11-03T06:22:11.934Z,11.24
2022-11-03T06:24:52.574Z,11.29
2022-11-03T06:27:34.521Z,11.33
2022-11-03T06:30:29.975Z,11.37
2022-11-03T06:33:18.725Z,11.41
2022-11-03T06:36:02.168Z,11.29
2022-11-03T06:38:41.696Z,11.46
2022-11-03T06:41:29.010Z,11.50
2022-11-03T06:44:09.243Z,11.52
2022-11-03T06:46:49.697Z,11.54
2022-11-03T06:49:40.812Z,11.11
2022-11-03T06:52:31.410Z,11.56
2022-11-03T06:55:28.273Z,11.61
2022-11-03T06:58:11.547Z,11.45
2022-11-03T07:00:51.569Z,11.58
2022-11-03T07:03:35.456Z,11.56
2022-11-03T07:06:27.314Z,11.53
2022-11-03T07:09:09.668Z,11.51
2022-11-03T07:11:52.599Z,11.54
2022-11-03T07:14:36.488Z,11.58
2022-11-03T07:17:22.692Z,11.58
2022-11-03T07:20:02.164Z,11.54
2022-11-03T07:22:42.894Z,11.56
2022-11-03T07:25:26.232Z,11.54
2022-11-03T07:28:07.951Z,11.53
2022-11-03T07:30:47.417Z,11.51
2022-11-03T07:33:28.772Z,11.50
2022-11-03T07:36:15.393Z,11.48
2022-11-03T07:38:59.545Z,11.51
2022-11-03T07:41:42.121Z,10.67
2022-11-03T07:44:21.683Z,11.53
2022-11-03T07:46:54.492Z,11.58
2022-11-03T07:49:28.603Z,11.64
2022-11-03T07:51:58.771Z,11.61
2022-11-03T07:54:31.747Z,11.58
2022-11-03T07:57:02.593Z,11.48
2022-11-03T07:59:35.173Z,11.56
2022-11-03T08:02:08.035Z,11.56
2022-11-03T08:04:36.845Z,11.59
2022-11-03T08:07:05.073Z,11.65
2022-11-03T08:09:34.852Z,11.70
2022-11-03T08:12:03.157Z,11.69
2022-11-03T08:14:31.784Z,11.73
2022-11-03T08:17:00.016Z,11.79
2022-11-03T08:19:28.376Z,11.78
2022-11-03T08:21:56.629Z,11.80
2022-11-03T08:24:25.619Z,11.79
2022-11-03T08:26:56.359Z,11.85
2022-11-03T08:29:27.243Z,11.87
2022-11-03T08:31:55.476Z,11.88
2022-11-03T08:34:23.633Z,11.89
2022-11-03T08:36:51.894Z,11.87
2022-11-03T08:39:20.232Z,11.92
2022-11-03T08:41:48.595Z,11.94
2022-11-03T08:44:18.256Z,11.98
2022-11-03T08:46:46.721Z,11.98
2022-11-03T08:49:14.950Z,12.03
2022-11-03T08:51:44.539Z,12.03
2022-11-03T08:54:14.470Z,11.99
2022-11-03T08:56:43.874Z,11.96
2022-11-03T08:59:12.084Z,11.94
2022-11-03T09:01:45.965Z,11.94
2022-11-03T09:04:14.384Z,11.96
2022-11-03T09:06:42.682Z,11.97
2022-11-03T09:12:03.902Z,11.92
2022-11-03T09:14:32.465Z,11.89
2022-11-03T09:19:32.086Z,11.90
2022-11-03T09:22:01.145Z,11.94
2022-11-03T09:24:30.540Z,11.98
2022-11-03T09:27:02.124Z,12.02
2022-11-03T09:29:51.572Z,12.06
2022-11-03T09:32:23.569Z,12.07
2022-11-03T09:34:52.181Z,12.07
2022-11-03T09:37:20.493Z,12.10
2022-11-03T09:39:48.972Z,12.07
2022-11-03T09:42:18.723Z,12.08
2022-11-03T09:44:50.589Z,12.08
2022-11-03T09:47:25.664Z,12.10
2022-11-03T09:49:54.075Z,12.08
2022-11-03T09:52:24.560Z,12.05
2022-11-03T09:54:55.390Z,12.00
2022-11-03T09:57:24.697Z,11.98
2022-11-03T09:59:53.202Z,11.94
2022-11-03T10:02:27.344Z,11.94
2022-11-03T10:04:58.413Z,11.88
2022-11-03T10:07:30.163Z,11.90
2022-11-03T10:10:01.186Z,11.87
2022-11-03T10:12:33.739Z,11.88
2022-11-03T10:15:02.171Z,11.90
2022-11-03T10:17:32.337Z,11.94
2022-11-03T10:20:02.593Z,11.93
2022-11-03T10:22:30.923Z,11.90
2022-11-03T10:25:30.184Z,11.92
2022-11-03T10:28:17.357Z,11.84
2022-11-03T10:33:53.133Z,11.75
2022-11-03T10:36:26.401Z,11.73
2022-11-03T10:39:00.143Z,11.81
2022-11-03T10:41:30.436Z,11.90
2022-11-03T10:44:05.527Z,11.97
2022-11-03T10:46:51.545Z,12.01
2022-11-03T10:49:21.940Z,12.04
2022-11-03T10:51:52.812Z,12.12
2022-11-03T10:54:23.843Z,12.18
2022-11-03T10:56:53.612Z,12.24
2022-11-03T10:59:25.601Z,12.27
2022-11-03T11:01:55.435Z,12.30
2022-11-03T11:04:25.310Z,12.37
2022-11-03T11:06:53.704Z,12.41
2022-11-03T11:09:26.694Z,12.46
2022-11-03T11:12:03.687Z,12.48
2022-11-03T11:14:40.525Z,12.50
2022-11-03T11:17:42.092Z,12.57
2022-11-03T11:20:37.110Z,12.63
2022-11-03T11:23:48.250Z,12.00
2022-11-03T11:26:31.055Z,12.76
2022-11-03T11:29:46.578Z,12.90
2022-11-03T11:32:48.795Z,13.00
2022-11-03T11:35:34.504Z,13.07
2022-11-03T11:38:35.724Z,13.13
2022-11-03T11:41:05.511Z,13.16
2022-11-03T11:43:34.779Z,13.22
2022-11-03T11:46:36.548Z,13.27
2022-11-03T11:49:18.584Z,13.21
2022-11-03T11:51:47.869Z,13.23
2022-11-03T11:54:20.526Z,13.27
2022-11-03T11:56:51.321Z,13.28
2022-11-03T11:59:25.072Z,13.30
2022-11-03T12:01:56.231Z,13.33
2022-11-03T12:04:27.987Z,13.36
2022-11-03T12:06:57.731Z,13.39
2022-11-03T12:09:28.366Z,13.41
2022-11-03T12:12:03.542Z,13.38
2022-11-03T12:14:37.902Z,13.31
2022-11-03T12:17:34.640Z,13.28
2022-11-03T12:20:47.187Z,13.21
2022-11-03T12:23:33.798Z,13.22
2022-11-03T12:26:02.324Z,13.29
2022-11-03T12:28:36.130Z,13.11
2022-11-03T12:31:05.241Z,13.43
2022-11-03T12:33:34.481Z,13.45
2022-11-03T12:36:02.756Z,13.47
2022-11-03T12:38:31.012Z,13.47
2022-11-03T12:41:19.368Z,13.48
2022-11-03T12:43:49.873Z,13.50
2022-11-03T12:46:19.043Z,13.55
2022-11-03T12:48:49.174Z,13.54
2022-11-03T12:51:22.278Z,13.53
2022-11-03T12:53:51.546Z,13.57
2022-11-03T12:56:26.600Z,13.56
2022-11-03T12:58:56.413Z,13.56
2022-11-03T13:01:25.260Z,13.56
2022-11-03T13:03:53.737Z,12.87
2022-11-03T13:06:22.323Z,13.62
2022-11-03T13:08:53.166Z,13.67
2022-11-03T13:11:39.188Z,13.71
2022-11-03T13:14:08.853Z,13.67
2022-11-03T13:16:38.312Z,13.70
2022-11-03T13:19:07.238Z,13.73
2022-11-03T13:21:35.654Z,13.77
2022-11-03T13:24:05.283Z,13.79
2022-11-03T13:26:33.444Z,13.82
2022-11-03T13:29:01.837Z,13.80
2022-11-03T13:31:31.453Z,13.77
2022-11-03T13:33:59.819Z,13.77
2022-11-03T13:36:28.085Z,13.80
2022-11-03T13:38:57.551Z,13.78
2022-11-03T13:41:25.816Z,13.80
2022-11-03T13:43:54.171Z,13.82
2022-11-03T13:46:22.496Z,13.84
2022-11-03T13:49:35.809Z,13.84
2022-11-03T13:51:40.487Z,13.83
2022-11-03T13:59:46.209Z,13.79
2022-11-03T14:05:10.393Z,13.83
2022-11-03T14:07:40.003Z,13.86
2022-11-03T14:10:09.275Z,13.89
2022-11-03T14:12:37.642Z,13.92
2022-11-03T14:15:08.140Z,13.95
2022-11-03T14:17:37.245Z,13.93
2022-11-03T14:20:09.616Z,13.82
2022-11-03T14:22:38.075Z,13.93
2022-11-03T14:25:07.939Z,13.95
2022-11-03T14:27:36.403Z,13.96
2022-11-03T14:30:05.233Z,13.88
2022-11-03T14:32:33.513Z,13.96
2022-11-03T14:35:04.461Z,14.00
2022-11-03T14:37:34.248Z,13.98
2022-11-03T14:40:02.495Z,13.99
2022-11-03T14:42:29.785Z,13.97
2022-11-03T14:44:58.060Z,14.00
2022-11-03T14:47:26.629Z,14.01
2022-11-03T14:49:55.901Z,14.04
2022-11-03T14:52:25.130Z,14.08
2022-11-03T14:54:54.884Z,14.09
2022-11-03T14:57:23.244Z,14.10
2022-11-03T14:59:53.607Z,14.12
2022-11-03T15:02:22.293Z,14.14
2022-11-03T15:04:50.704Z,14.17
2022-11-03T15:07:18.976Z,14.19
2022-11-03T15:09:47.218Z,14.18
2022-11-03T15:12:16.952Z,14.24
2022-11-03T15:14:46.235Z,14.25
2022-11-03T15:17:17.734Z,14.26
2022-11-03T15:19:46.190Z,14.26
2022-11-03T15:22:14.784Z,14.26
2022-11-03T15:27:34.196Z,14.29
2022-11-03T15:30:02.596Z,14.26
2022-11-03T15:32:36.155Z,14.23
2022-11-03T15:35:05.074Z,14.23
2022-11-03T15:37:33.401Z,14.26
2022-11-03T15:40:01.670Z,14.24
2022-11-03T15:42:29.900Z,14.21
2022-11-03T15:44:59.597Z,14.18
2022-11-03T15:47:27.949Z,14.16
2022-11-03T15:49:56.333Z,14.16
2022-11-03T15:52:24.618Z,14.13
2022-11-03T15:54:52.945Z,14.15
2022-11-03T15:57:21.241Z,14.16
2022-11-03T15:59:51.573Z,14.18
2022-11-03T16:05:12.042Z,14.21
2022-11-03T16:07:40.263Z,14.21
2022-11-03T16:10:14.422Z,14.22
2022-11-03T16:12:44.101Z,14.23
2022-11-03T16:15:12.943Z,14.20
2022-11-03T16:17:45.490Z,14.19
2022-11-03T16:20:14.712Z,14.19
2022-11-03T16:22:43.366Z,14.16
2022-11-03T16:25:13.437Z,14.16
2022-11-03T16:27:44.291Z,14.13
2022-11-03T16:30:13.782Z,14.12
2022-11-03T16:32:43.974Z,14.07
2022-11-03T16:35:12.395Z,14.04
2022-11-03T16:37:40.627Z,14.04
2022-11-03T16:40:14.799Z,14.03
2022-11-03T16:42:46.172Z,14.02
2022-11-03T16:45:18.832Z,14.00
2022-11-03T16:47:49.473Z,13.96
2022-11-03T16:50:18.610Z,13.94
2022-11-03T16:52:47.946Z,13.89
2022-11-03T16:55:17.190Z,13.88
2022-11-03T16:57:45.878Z,13.83
2022-11-03T17:00:16.318Z,13.78
2022-11-03T17:02:45.130Z,13.71
2022-11-03T17:05:16.722Z,13.67
2022-11-03T17:07:48.752Z,13.57
2022-11-03T17:10:21.432Z,13.54
2022-11-03T17:12:49.822Z,13.53
2022-11-03T17:15:18.372Z,13.50
2022-11-03T17:17:46.690Z,13.45
2022-11-03T17:20:16.392Z,13.40
2022-11-03T17:22:44.753Z,13.39
2022-11-03T17:25:13.514Z,13.13
2022-11-03T17:27:46.175Z,13.29
2022-11-03T17:30:20.096Z,13.23
2022-11-03T17:32:50.555Z,13.12
2022-11-03T17:35:22.464Z,13.13
2022-11-03T17:37:51.327Z,13.06
2022-11-03T17:40:21.576Z,13.03
2022-11-03T17:42:49.954Z,12.93
2022-11-03T17:45:20.198Z,12.98
2022-11-03T17:47:49.693Z,12.97
2022-11-03T17:50:20.810Z,12.89
2022-11-03T17:52:51.300Z,12.81
2022-11-03T17:55:23.742Z,12.74
2022-11-03T17:57:52.121Z,12.69
2022-11-03T18:00:22.462Z,12.76
2022-11-03T18:02:52.669Z,12.77
2022-11-03T18:05:28.679Z,12.81
2022-11-03T18:07:57.987Z,12.83
2022-11-03T18:10:29.671Z,12.79
2022-11-03T18:13:18.943Z,12.93
2022-11-03T18:15:49.407Z,12.89
2022-11-03T18:18:26.501Z,12.95
2022-11-03T18:20:56.642Z,12.99
2022-11-03T18:23:28.186Z,12.99
2022-11-03T18:25:56.597Z,13.01
2022-11-03T18:28:27.193Z,13.05
2022-11-03T18:30:57.501Z,13.07
2022-11-03T18:33:28.710Z,12.82
2022-11-03T18:35:59.450Z,13.10
2022-11-03T18:38:28.959Z,13.14
2022-11-03T18:40:58.140Z,13.18
2022-11-03T18:43:27.637Z,13.23
2022-11-03T18:45:56.045Z,13.26
2022-11-03T18:48:25.639Z,13.26
2022-11-03T18:50:56.989Z,13.29
2022-11-03T18:53:27.791Z,13.37
2022-11-03T18:56:01.166Z,13.46
2022-11-03T18:58:30.128Z,13.54
2022-11-03T19:00:59.310Z,13.65
2022-11-03T19:03:31.116Z,13.74
2022-11-03T19:06:00.719Z,13.85
2022-11-03T19:08:35.205Z,13.85
2022-11-03T19:11:05.511Z,13.98
2022-11-03T19:13:38.347Z,14.03
2022-11-03T19:16:16.803Z,14.11
2022-11-03T19:18:46.499Z,14.15
2022-11-03T19:21:17.954Z,14.19
2022-11-03T19:23:52.941Z,14.24
2022-11-03T19:26:33.705Z,14.12
2022-11-03T19:29:10.440Z,14.03
2022-11-03T19:31:41.304Z,14.28
2022-11-03T19:34:16.347Z,15.00
2022-11-03T19:36:45.789Z,14.12
2022-11-03T19:39:22.094Z,12.52
2022-11-03T19:42:10.103Z,14.51
2022-11-03T19:44:39.873Z,14.02
2022-11-03T19:47:15.451Z,14.39
2022-11-03T19:49:44.062Z,14.02
2022-11-03T19:52:15.185Z,14.18
2022-11-03T19:54:47.250Z,14.34
2022-11-03T19:57:18.871Z,14.33
2022-11-03T19:59:47.573Z,14.08
2022-11-03T20:02:15.957Z,14.22
2022-11-03T20:04:47.411Z,14.14
2022-11-03T20:07:17.552Z,14.11
2022-11-03T20:09:47.522Z,14.09
2022-11-03T20:12:19.074Z,14.03
2022-11-03T20:14:47.463Z,13.90
2022-11-03T20:17:17.872Z,13.85
2022-11-03T20:19:46.280Z,13.83
2022-11-03T20:22:17.885Z,13.85
2022-11-03T20:24:50.439Z,13.77
2022-11-03T20:27:21.902Z,13.73
2022-11-03T20:29:50.417Z,13.72
2022-11-03T20:32:18.670Z,13.68
2022-11-03T20:34:48.118Z,13.64
2022-11-03T20:37:19.275Z,13.58
2022-11-03T20:39:49.751Z,13.31
2022-11-03T20:42:22.497Z,13.28
2022-11-03T20:44:51.553Z,13.32
2022-11-03T20:47:21.737Z,13.30
2022-11-03T20:49:50.979Z,13.04
2022-11-03T20:52:19.896Z,13.66
2022-11-03T20:54:51.315Z,13.37
2022-11-03T20:59:07.396Z,13.70
2022-11-03T21:00:52.015Z,12.95
2022-11-03T21:03:58.294Z,13.27
2022-11-03T21:06:15.271Z,13.78
2022-11-03T21:08:45.003Z,13.80
2022-11-03T21:11:25.876Z,13.52
2022-11-03T21:14:01.615Z,13.40
2022-11-03T21:16:50.757Z,13.86
2022-11-03T21:19:41.476Z,13.60
2022-11-03T21:22:50.732Z,13.83
2022-11-03T21:25:05.577Z,13.51
2022-11-03T21:27:39.330Z,13.40
2022-11-03T21:30:14.178Z,13.28
2022-11-03T21:32:44.032Z,13.87
2022-11-03T21:35:16.477Z,13.43
2022-11-03T21:37:45.179Z,13.64
2022-11-03T21:40:15.215Z,12.65
2022-11-03T21:43:04.762Z,12.60
2022-11-03T21:45:33.686Z,13.85
2022-11-03T21:48:20.205Z,13.84
2022-11-03T21:50:49.116Z,12.68
2022-11-03T21:53:17.563Z,13.88
2022-11-03T21:55:48.611Z,13.93
2022-11-03T21:58:18.405Z,13.81
2022-11-03T22:00:47.433Z,14.00
2022-11-03T22:03:16.003Z,14.01
2022-11-03T22:05:44.576Z,14.01
2022-11-03T22:08:13.360Z,12.95
2022-11-03T22:10:44.286Z,14.02
2022-11-03T22:13:17.704Z,13.64
2022-11-03T22:16:07.287Z,13.73
2022-11-03T22:18:40.701Z,13.84
2022-11-03T22:21:31.544Z,13.28
2022-11-03T22:24:16.293Z,13.59
2022-11-03T22:26:58.691Z,13.86
2022-11-03T22:29:46.004Z,13.80
2022-11-03T22:32:17.188Z,13.75
2022-11-03T22:35:08.384Z,12.47
2022-11-03T22:40:29.156Z,13.13
2022-11-03T22:43:27.045Z,13.70
2022-11-03T22:45:57.995Z,12.64
2022-11-03T22:48:28.977Z,13.72
2022-11-03T22:51:02.505Z,13.08
2022-11-03T22:53:49.529Z,13.06
2022-11-03T22:56:19.033Z,13.48
2022-11-03T22:58:49.031Z,12.96
2022-11-03T23:01:25.863Z,13.49
2022-11-03T23:04:01.205Z,13.15
2022-11-03T23:06:35.869Z,13.47
2022-11-03T23:09:05.544Z,13.37
2022-11-03T23:11:35.401Z,13.35
2022-11-03T23:14:06.402Z,12.97
2022-11-03T23:16:36.403Z,11.88
2022-11-03T23:19:24.661Z,12.27
2022-11-03T23:21:54.769Z,12.60
2022-11-03T23:24:45.064Z,13.26
2022-11-03T23:27:14.810Z,12.99
2022-11-03T23:29:45.508Z,12.81
2022-11-03T23:32:14.801Z,13.12
2022-11-03T23:34:45.468Z,13.02
2022-11-03T23:37:14.521Z,12.88
2022-11-03T23:39:42.922Z,12.73
2022-11-03T23:42:12.781Z,12.14
2022-11-03T23:44:58.978Z,12.06
2022-11-03T23:47:44.933Z,12.31
2022-11-03T23:50:15.403Z,12.35
2022-11-03T23:52:43.964Z,12.01
2022-11-03T23:55:12.310Z,12.09
2022-11-03T23:57:58.456Z,11.96
